Time;durP1;ratioP1;P1;durP2;ratioP2;P2;SDS_P1;SDS_P2;PMS_P1;PMS_P2;Temp;Humidity;BMP_temperature;BMP_pressure;BME280_temperature;BME280_humidity;BME280_pressure;Samples;Min_cycle;Max_cycle;Signal;HPM_P1;HPM_P2
2023/07/15 00:11:37;;;;;;;12.02;6.65;;;;;;;25.77;100.00;99783.84;30881990;28;20058;-75
2023/07/15 00:26:40;;;;;;;9.95;7.15;;;;;;;25.62;100.00;99795.44;30884915;28;20089;-77
2023/07/15 00:41:42;;;;;;;10.35;7.20;;;;;;;25.58;100.00;99795.00;30883404;28;20404;-76
2023/07/15 00:56:45;;;;;;;9.93;6.47;;;;;;;25.52;100.00;99813.03;30879797;28;20122;-79
2023/07/15 01:11:48;;;;;;;8.73;5.87;;;;;;;25.43;100.00;99814.19;30881001;28;20583;-75
2023/07/15 01:26:57;;;;;;;11.47;6.50;;;;;;;25.34;100.00;99822.91;30878770;28;20054;-78
2023/07/15 01:41:59;;;;;;;9.80;6.13;;;;;;;25.19;100.00;99833.75;30875911;28;20105;-75
2023/07/15 01:57:01;;;;;;;7.53;5.57;;;;;;;25.13;100.00;99845.66;30877118;28;20109;-76
2023/07/15 02:12:04;;;;;;;8.80;6.28;;;;;;;24.98;100.00;99850.94;30882408;28;20499;-77
2023/07/15 02:27:06;;;;;;;8.30;5.75;;;;;;;25.11;100.00;99869.69;30876109;28;20162;-75
2023/07/15 02:42:08;;;;;;;9.98;5.70;;;;;;;25.17;100.00;99884.25;30873084;28;20061;-77
2023/07/15 02:57:10;;;;;;;10.63;5.65;;;;;;;25.33;100.00;99929.75;30875514;28;20137;-77
2023/07/15 03:12:12;;;;;;;10.32;6.68;;;;;;;25.47;100.00;99937.66;30869609;28;20389;-77
2023/07/15 03:27:14;;;;;;;9.48;6.30;;;;;;;25.78;100.00;99957.72;30865237;28;20416;-77
2023/07/15 03:42:16;;;;;;;12.10;6.90;;;;;;;26.01;100.00;99970.03;30860116;28;20061;-77
2023/07/15 03:57:18;;;;;;;10.82;6.80;;;;;;;26.30;100.00;100000.97;30861160;28;20055;-77
2023/07/15 04:12:21;;;;;;;12.95;7.25;;;;;;;26.52;100.00;100022.88;30857357;28;20062;-78
2023/07/15 04:27:23;;;;;;;;;;;;;;;27.18;100.00;100036.94;30857365;28;20059;-76
2023/07/15 04:42:26;;;;;;;8.48;6.18;;;;;;;27.49;100.00;100055.59;30878090;28;19969;-77
2023/07/15 04:57:28;;;;;;;10.07;6.72;;;;;;;28.03;100.00;100082.16;30881672;28;20485;-76
2023/07/15 05:12:30;;;;;;;9.03;6.30;;;;;;;28.61;100.00;100109.03;30878638;28;20146;-78
2023/07/15 05:27:32;;;;;;;14.30;6.90;;;;;;;29.14;96.40;100126.28;30875618;28;20058;-78
2023/07/15 05:42:34;;;;;;;8.43;5.57;;;;;;;29.56;90.24;100137.41;30881382;28;20051;-77
2023/07/15 05:57:36;;;;;;;8.13;4.73;;;;;;;30.18;84.95;100165.22;30881471;28;20039;-79
2023/07/15 06:12:38;;;;;;;6.85;4.40;;;;;;;30.62;80.98;100162.38;30874272;28;20102;-78
2023/07/15 06:27:40;;;;;;;9.45;4.30;;;;;;;31.18;77.04;100174.63;30872695;28;20062;-79
2023/07/15 06:42:43;;;;;;;5.05;3.50;;;;;;;31.59;69.09;100179.06;30876044;28;20046;-78
2023/07/15 06:57:45;;;;;;;3.70;3.17;;;;;;;32.02;66.50;100180.84;30867889;28;20074;-79
2023/07/15 07:12:47;;;;;;;3.85;2.75;;;;;;;32.66;63.42;100189.94;30869098;28;20074;-78
2023/07/15 07:27:52;;;;;;;2.50;1.77;;;;;;;32.94;55.63;100191.66;30865711;28;20061;-76
2023/07/15 07:42:54;;;;;;;4.40;2.13;;;;;;;33.51;51.48;100189.53;30857501;28;20493;-80
2023/07/15 07:57:56;;;;;;;3.97;2.20;;;;;;;33.95;49.31;100196.63;30866798;28;20497;-78
2023/07/15 08:12:58;;;;;;;3.33;2.10;;;;;;;34.37;49.69;100197.25;30879006;28;20149;-79
2023/07/15 08:28:00;;;;;;;5.65;1.90;;;;;;;34.81;47.34;100208.50;30886520;28;20057;-77
2023/07/15 08:43:04;;;;;;;2.97;1.88;;;;;;;35.21;47.36;100205.25;30882727;28;20169;-77
2023/07/15 08:58:07;;;;;;;6.95;2.50;;;;;;;35.82;44.15;100192.94;30879761;28;20404;-80
2023/07/15 09:13:09;;;;;;;5.13;1.70;;;;;;;35.95;42.14;100200.22;30879021;28;20107;-79
2023/07/15 09:28:11;;;;;;;3.97;2.22;;;;;;;35.26;42.59;100197.84;30877365;28;20057;-79
2023/07/15 09:43:13;;;;;;;5.38;2.17;;;;;;;34.94;43.77;100192.56;30879648;28;20117;-77
2023/07/15 09:58:23;;;;;;;2.90;1.83;;;;;;;36.76;40.95;100189.13;30872342;28;20093;-81
2023/07/15 10:13:25;;;;;;;3.43;1.43;;;;;;;38.02;38.11;100202.56;30875356;28;20054;-76
2023/07/15 10:28:36;;;;;;;7.80;4.45;;;;;;;38.13;36.45;100199.78;30867211;28;20078;-79
2023/07/15 10:43:40;;;;;;;3.58;2.58;;;;;;;38.67;35.05;100190.44;30875013;28;20086;-78
2023/07/15 10:58:43;;;;;;;2.70;1.63;;;;;;;39.02;35.11;100196.13;30875516;28;20098;-79
2023/07/15 11:13:46;;;;;;;2.85;1.45;;;;;;;37.12;35.58;100187.31;30871621;28;20058;-79
2023/07/15 11:28:49;;;;;;;2.00;1.38;;;;;;;37.04;35.89;100175.47;30872451;28;20086;-78
2023/07/15 11:43:53;;;;;;;5.38;3.15;;;;;;;36.05;36.56;100180.44;30867792;28;20062;-81
2023/07/15 11:58:56;;;;;;;5.68;3.20;;;;;;;35.61;37.37;100178.63;30870972;28;20151;-81
2023/07/15 12:13:59;;;;;;;1.92;1.40;;;;;;;34.42;37.31;100172.97;30867636;28;20091;-79
2023/07/15 12:29:02;;;;;;;2.20;1.38;;;;;;;34.42;36.02;100170.16;30864800;28;20075;-79
2023/07/15 12:44:04;;;;;;;2.58;1.70;;;;;;;33.94;36.43;100170.53;30863942;28;20054;-79
2023/07/15 12:59:06;;;;;;;2.80;1.17;;;;;;;33.79;36.58;100165.06;30875107;28;20047;-79
2023/07/15 13:14:08;;;;;;;6.05;1.27;;;;;;;33.67;37.73;100159.16;30878999;28;20059;-79
2023/07/15 13:29:10;;;;;;;3.58;1.88;;;;;;;33.39;37.72;100154.75;30881655;28;20521;-78
2023/07/15 13:44:12;;;;;;;2.42;1.50;;;;;;;33.45;38.43;100141.19;30884975;28;20058;-79
2023/07/15 13:59:18;;;;;;;5.22;3.90;;;;;;;33.16;37.48;100137.31;30878353;28;20057;-77
2023/07/15 14:14:20;;;;;;;2.08;1.45;;;;;;;32.90;38.35;100129.47;30883175;28;20084;-79
2023/07/15 14:29:22;;;;;;;4.75;1.55;;;;;;;32.54;38.90;100139.06;30876509;28;20130;-78
2023/07/15 14:44:24;;;;;;;3.88;2.20;;;;;;;32.49;39.09;100149.22;30868104;28;20055;-78
2023/07/15 14:59:26;;;;;;;3.10;2.38;;;;;;;32.16;38.55;100158.91;30871884;28;20070;-78
2023/07/15 15:14:28;;;;;;;3.05;2.03;;;;;;;31.95;39.00;100170.41;30865833;28;20165;-78
2023/07/15 15:29:30;;;;;;;3.75;2.13;;;;;;;31.89;40.08;100178.25;30867027;28;20527;-77
2023/07/15 15:44:34;;;;;;;4.32;2.97;;;;;;;31.68;40.08;100186.91;30869780;28;20051;-78
2023/07/15 15:59:36;;;;;;;4.00;2.63;;;;;;;31.47;41.66;100195.53;30870522;28;20042;-78
2023/07/15 16:14:38;;;;;;;3.88;2.47;;;;;;;31.29;43.30;100207.88;30869157;28;20133;-78
2023/07/15 16:29:43;;;;;;;2.22;1.73;;;;;;;30.95;43.89;100219.41;30874908;28;20370;-79
2023/07/15 16:44:45;;;;;;;7.65;3.88;;;;;;;30.66;43.84;100227.19;30893316;28;20491;-78
2023/07/15 16:59:47;;;;;;;3.05;2.55;;;;;;;30.42;44.40;100236.78;30897596;28;20050;-77
2023/07/15 17:14:49;;;;;;;21.83;8.80;;;;;;;30.27;45.27;100247.16;30886907;28;20050;-80
2023/07/15 17:29:51;;;;;;;2.90;2.50;;;;;;;29.77;47.03;100257.66;30883324;28;20058;-77
2023/07/15 17:44:53;;;;;;;;;;;;;;;29.75;48.34;100265.88;30877849;28;20058;-78
2023/07/15 17:59:55;;;;;;;4.47;2.58;;;;;;;29.20;49.00;100288.28;30874619;28;19922;-78
2023/07/15 18:14:57;;;;;;;4.23;2.60;;;;;;;29.13;49.55;100303.66;30874027;28;20177;-78
2023/07/15 18:29:59;;;;;;;4.10;2.93;;;;;;;29.19;50.09;100318.28;30868207;28;20303;-77
2023/07/15 18:45:01;;;;;;;7.45;3.03;;;;;;;28.90;51.94;100325.03;30867600;28;20158;-81
2023/07/15 19:00:04;;;;;;;6.72;3.05;;;;;;;28.88;53.13;100333.19;30870831;28;20074;-78
2023/07/15 19:15:07;;;;;;;5.22;2.65;;;;;;;28.89;52.73;100323.50;30873067;28;20078;-81
2023/07/15 19:30:09;;;;;;;5.30;2.40;;;;;;;28.82;52.79;100330.50;30867874;28;20054;-78
2023/07/15 19:45:11;;;;;;;;;;;;;;;28.58;54.33;100339.13;30865062;28;20055;-78
2023/07/15 20:00:13;;;;;;;3.85;2.55;;;;;;;27.73;55.78;100369.03;30860341;28;20371;-78
2023/07/15 20:15:15;;;;;;;7.87;3.47;;;;;;;27.30;59.65;100361.53;30887896;28;20086;-78
2023/07/15 20:30:17;;;;;;;8.70;3.13;;;;;;;26.91;61.66;100358.50;30889772;28;20449;-79
2023/07/15 20:45:19;;;;;;;9.73;3.57;;;;;;;26.66;65.87;100355.75;30885195;28;20090;-76
2023/07/15 21:00:22;;;;;;;4.53;3.43;;;;;;;26.56;68.34;100339.91;30884948;28;20128;-76
2023/07/15 21:15:26;;;;;;;4.90;3.08;;;;;;;26.31;70.64;100337.16;30879765;28;20055;-77
2023/07/15 21:30:28;;;;;;;5.03;2.58;;;;;;;25.98;72.22;100332.66;30879864;28;20424;-76
2023/07/15 21:45:30;;;;;;;4.20;2.55;;;;;;;25.88;73.54;100336.28;30878764;28;20432;-76
2023/07/15 22:00:33;;;;;;;3.83;2.80;;;;;;;26.04;73.58;100324.25;30875942;28;20046;-77
2023/07/15 22:15:38;;;;;;;6.85;2.80;;;;;;;25.96;73.84;100306.63;30875469;28;20137;-76
2023/07/15 22:30:40;;;;;;;4.00;2.27;;;;;;;25.84;75.09;100311.53;30873252;28;20497;-75
2023/07/15 22:45:42;;;;;;;3.90;2.60;;;;;;;25.62;77.99;100306.13;30863669;28;20050;-76
2023/07/15 23:00:57;;;;;;;4.93;2.35;;;;;;;25.46;79.46;100302.97;30871590;28;20071;-75
2023/07/15 23:15:59;;;;;;;5.05;2.42;;;;;;;25.61;78.73;100299.06;30869537;28;20563;-75
2023/07/15 23:31:19;;;;;;;5.18;2.58;;;;;;;25.38;79.40;100293.69;30866971;28;20507;-77
2023/07/15 23:46:21;;;;;;;4.25;2.90;;;;;;;25.18;81.42;100291.31;30860387;28;20452;-74
